sensor_id;sensor_type;location;lat;lon;timestamp;pressure;altitude;pressure_sealevel;temperature;humidity
82672;BME280;72378;52.468;13.432;2024-01-30T00:00:23;102471.16;;;10.19;42.07
82672;BME280;72378;52.468;13.432;2024-01-30T00:02:50;102469.47;;;10.27;41.72
82672;BME280;72378;52.468;13.432;2024-01-30T00:05:16;102463.59;;;9.92;42.68
82672;BME280;72378;52.468;13.432;2024-01-30T00:07:44;102468.91;;;10.24;41.68
82672;BME280;72378;52.468;13.432;2024-01-30T00:10:10;102469.91;;;10.23;41.85
82672;BME280;72378;52.468;13.432;2024-01-30T00:12:36;102471.28;;;9.66;42.77
82672;BME280;72378;52.468;13.432;2024-01-30T00:15:03;102479.00;;;9.50;43.29
82672;BME280;72378;52.468;13.432;2024-01-30T00:17:33;102477.31;;;9.18;43.78
82672;BME280;72378;52.468;13.432;2024-01-30T00:19:59;102473.69;;;10.11;42.00
82672;BME280;72378;52.468;13.432;2024-01-30T00:22:26;102476.03;;;9.01;44.60
82672;BME280;72378;52.468;13.432;2024-01-30T00:24:53;102475.56;;;9.48;43.21
82672;BME280;72378;52.468;13.432;2024-01-30T00:27:19;102470.38;;;9.04;44.47
82672;BME280;72378;52.468;13.432;2024-01-30T00:29:46;102471.22;;;9.05;44.64
82672;BME280;72378;52.468;13.432;2024-01-30T00:32:12;102473.13;;;9.14;44.28
82672;BME280;72378;52.468;13.432;2024-01-30T00:34:38;102474.47;;;8.88;44.43
82672;BME280;72378;52.468;13.432;2024-01-30T00:37:05;102470.66;;;9.63;43.18
82672;BME280;72378;52.468;13.432;2024-01-30T00:39:31;102469.16;;;8.97;44.54
82672;BME280;72378;52.468;13.432;2024-01-30T00:41:59;102472.34;;;9.02;44.89
82672;BME280;72378;52.468;13.432;2024-01-30T00:44:25;102467.94;;;8.58;44.95
82672;BME280;72378;52.468;13.432;2024-01-30T00:46:51;102464.28;;;9.43;43.62
82672;BME280;72378;52.468;13.432;2024-01-30T00:49:18;102456.03;;;9.24;43.67
82672;BME280;72378;52.468;13.432;2024-01-30T00:51:44;102459.13;;;9.61;43.20
82672;BME280;72378;52.468;13.432;2024-01-30T00:54:11;102460.22;;;9.28;43.43
82672;BME280;72378;52.468;13.432;2024-01-30T00:56:37;102464.63;;;9.50;43.66
82672;BME280;72378;52.468;13.432;2024-01-30T00:59:05;102464.56;;;8.88;44.66
82672;BME280;72378;52.468;13.432;2024-01-30T01:01:31;102467.31;;;9.50;43.48
82672;BME280;72378;52.468;13.432;2024-01-30T01:03:57;102464.22;;;9.13;44.18
82672;BME280;72378;52.468;13.432;2024-01-30T01:06:24;102462.84;;;9.60;43.14
82672;BME280;72378;52.468;13.432;2024-01-30T01:08:50;102470.28;;;9.47;43.25
82672;BME280;72378;52.468;13.432;2024-01-30T01:11:16;102467.03;;;9.32;43.89
82672;BME280;72378;52.468;13.432;2024-01-30T01:13:43;102461.00;;;9.60;43.13
82672;BME280;72378;52.468;13.432;2024-01-30T01:16:10;102459.72;;;9.64;42.81
82672;BME280;72378;52.468;13.432;2024-01-30T01:18:36;102462.31;;;9.45;43.74
82672;BME280;72378;52.468;13.432;2024-01-30T01:21:03;102463.03;;;9.27;43.62
82672;BME280;72378;52.468;13.432;2024-01-30T01:23:30;102467.72;;;9.25;43.39
82672;BME280;72378;52.468;13.432;2024-01-30T01:25:56;102453.56;;;8.69;45.29
82672;BME280;72378;52.468;13.432;2024-01-30T01:28:24;102469.47;;;9.76;43.05
82672;BME280;72378;52.468;13.432;2024-01-30T01:30:51;102462.38;;;9.75;43.31
82672;BME280;72378;52.468;13.432;2024-01-30T01:33:18;102472.44;;;10.15;42.26
82672;BME280;72378;52.468;13.432;2024-01-30T01:35:45;102462.50;;;9.74;43.09
82672;BME280;72378;52.468;13.432;2024-01-30T01:38:11;102463.88;;;9.89;42.61
82672;BME280;72378;52.468;13.432;2024-01-30T01:40:37;102456.97;;;10.06;42.08
82672;BME280;72378;52.468;13.432;2024-01-30T01:43:04;102454.13;;;10.07;42.19
82672;BME280;72378;52.468;13.432;2024-01-30T01:45:31;102452.31;;;9.77;42.95
82672;BME280;72378;52.468;13.432;2024-01-30T01:47:57;102465.59;;;9.69;42.78
82672;BME280;72378;52.468;13.432;2024-01-30T01:50:25;102458.81;;;9.54;43.43
82672;BME280;72378;52.468;13.432;2024-01-30T01:52:52;102456.22;;;9.94;42.15
82672;BME280;72378;52.468;13.432;2024-01-30T01:55:20;102456.88;;;9.04;44.11
82672;BME280;72378;52.468;13.432;2024-01-30T01:57:49;102455.41;;;9.00;44.48
82672;BME280;72378;52.468;13.432;2024-01-30T02:00:17;102455.84;;;9.78;42.70
82672;BME280;72378;52.468;13.432;2024-01-30T02:02:45;102450.63;;;8.72;44.80
82672;BME280;72378;52.468;13.432;2024-01-30T02:05:12;102455.84;;;9.16;44.19
82672;BME280;72378;52.468;13.432;2024-01-30T02:07:40;102458.91;;;8.80;44.68
82672;BME280;72378;52.468;13.432;2024-01-30T02:10:07;102452.41;;;8.51;45.98
82672;BME280;72378;52.468;13.432;2024-01-30T02:12:34;102452.13;;;8.54;45.54
82672;BME280;72378;52.468;13.432;2024-01-30T02:15:00;102458.50;;;8.53;45.41
82672;BME280;72378;52.468;13.432;2024-01-30T02:17:27;102457.91;;;9.44;43.20
82672;BME280;72378;52.468;13.432;2024-01-30T02:19:53;102460.47;;;8.94;44.71
82672;BME280;72378;52.468;13.432;2024-01-30T02:22:21;102451.03;;;8.34;45.82
82672;BME280;72378;52.468;13.432;2024-01-30T02:24:48;102452.50;;;9.44;43.59
82672;BME280;72378;52.468;13.432;2024-01-30T02:27:13;102453.16;;;9.37;43.36
82672;BME280;72378;52.468;13.432;2024-01-30T02:29:40;102461.19;;;7.76;46.82
82672;BME280;72378;52.468;13.432;2024-01-30T02:32:06;102458.63;;;7.74;47.53
82672;BME280;72378;52.468;13.432;2024-01-30T02:34:33;102454.59;;;8.35;47.04
82672;BME280;72378;52.468;13.432;2024-01-30T02:36:59;102453.75;;;8.12;46.81
82672;BME280;72378;52.468;13.432;2024-01-30T02:39:27;102461.88;;;8.77;45.74
82672;BME280;72378;52.468;13.432;2024-01-30T02:41:54;102453.38;;;8.93;44.50
82672;BME280;72378;52.468;13.432;2024-01-30T02:44:20;102449.72;;;8.07;46.42
82672;BME280;72378;52.468;13.432;2024-01-30T02:46:46;102441.00;;;8.14;47.00
82672;BME280;72378;52.468;13.432;2024-01-30T02:49:13;102449.41;;;8.65;46.12
82672;BME280;72378;52.468;13.432;2024-01-30T02:51:39;102449.53;;;8.63;45.40
82672;BME280;72378;52.468;13.432;2024-01-30T02:54:05;102444.78;;;7.57;48.52
82672;BME280;72378;52.468;13.432;2024-01-30T02:56:33;102440.94;;;9.01;44.94
82672;BME280;72378;52.468;13.432;2024-01-30T02:58:59;102439.19;;;9.52;43.84
82672;BME280;72378;52.468;13.432;2024-01-30T03:01:25;102445.22;;;9.35;43.96
82672;BME280;72378;52.468;13.432;2024-01-30T03:03:52;102432.69;;;9.55;43.65
82672;BME280;72378;52.468;13.432;2024-01-30T03:06:18;102436.34;;;9.74;43.29
82672;BME280;72378;52.468;13.432;2024-01-30T03:08:45;102436.69;;;9.40;43.36
82672;BME280;72378;52.468;13.432;2024-01-30T03:11:11;102425.84;;;8.78;45.43
82672;BME280;72378;52.468;13.432;2024-01-30T03:13:39;102428.41;;;8.80;45.23
82672;BME280;72378;52.468;13.432;2024-01-30T03:16:06;102431.78;;;8.50;46.24
82672;BME280;72378;52.468;13.432;2024-01-30T03:18:32;102431.53;;;8.96;45.51
82672;BME280;72378;52.468;13.432;2024-01-30T03:20:58;102417.97;;;8.86;45.34
82672;BME280;72378;52.468;13.432;2024-01-30T03:23:25;102427.72;;;8.98;44.75
82672;BME280;72378;52.468;13.432;2024-01-30T03:25:51;102432.28;;;8.55;46.65
82672;BME280;72378;52.468;13.432;2024-01-30T03:28:17;102432.69;;;8.17;47.42
82672;BME280;72378;52.468;13.432;2024-01-30T03:30:45;102427.03;;;8.85;45.88
82672;BME280;72378;52.468;13.432;2024-01-30T03:33:11;102425.50;;;9.24;45.33
82672;BME280;72378;52.468;13.432;2024-01-30T03:35:38;102405.22;;;8.77;45.07
82672;BME280;72378;52.468;13.432;2024-01-30T03:38:04;102421.78;;;8.19;47.15
82672;BME280;72378;52.468;13.432;2024-01-30T03:40:30;102422.75;;;8.51;46.31
82672;BME280;72378;52.468;13.432;2024-01-30T03:42:57;102420.69;;;9.07;45.08
82672;BME280;72378;52.468;13.432;2024-01-30T03:45:23;102421.81;;;8.73;45.95
82672;BME280;72378;52.468;13.432;2024-01-30T03:47:51;102420.69;;;8.75;45.88
82672;BME280;72378;52.468;13.432;2024-01-30T03:50:17;102420.38;;;8.89;45.78
82672;BME280;72378;52.468;13.432;2024-01-30T03:52:43;102417.56;;;8.91;45.97
82672;BME280;72378;52.468;13.432;2024-01-30T03:55:10;102419.09;;;9.04;45.76
82672;BME280;72378;52.468;13.432;2024-01-30T03:57:36;102420.06;;;8.40;47.17
82672;BME280;72378;52.468;13.432;2024-01-30T04:00:03;102418.94;;;8.85;46.43
82672;BME280;72378;52.468;13.432;2024-01-30T04:02:30;102423.63;;;8.72;47.10
82672;BME280;72378;52.468;13.432;2024-01-30T04:04:58;102423.09;;;8.46;46.90
82672;BME280;72378;52.468;13.432;2024-01-30T04:07:24;102423.34;;;8.43;46.86
82672;BME280;72378;52.468;13.432;2024-01-30T04:09:51;102423.91;;;9.21;45.59
82672;BME280;72378;52.468;13.432;2024-01-30T04:12:17;102418.63;;;8.67;46.18
82672;BME280;72378;52.468;13.432;2024-01-30T04:14:43;102420.00;;;8.62;46.64
82672;BME280;72378;52.468;13.432;2024-01-30T04:17:10;102419.31;;;8.38;47.39
82672;BME280;72378;52.468;13.432;2024-01-30T04:19:37;102417.59;;;8.15;47.43
82672;BME280;72378;52.468;13.432;2024-01-30T04:22:04;102420.91;;;8.29;47.72
82672;BME280;72378;52.468;13.432;2024-01-30T04:24:31;102422.56;;;8.63;47.32
82672;BME280;72378;52.468;13.432;2024-01-30T04:26:57;102414.66;;;9.35;44.81
82672;BME280;72378;52.468;13.432;2024-01-30T04:29:23;102418.00;;;8.10;47.74
82672;BME280;72378;52.468;13.432;2024-01-30T04:31:50;102418.28;;;8.93;46.47
82672;BME280;72378;52.468;13.432;2024-01-30T04:34:16;102425.88;;;8.67;46.98
82672;BME280;72378;52.468;13.432;2024-01-30T04:36:44;102407.22;;;7.88;48.53
82672;BME280;72378;52.468;13.432;2024-01-30T04:39:12;102422.75;;;8.51;48.02
82672;BME280;72378;52.468;13.432;2024-01-30T04:41:38;102407.16;;;8.86;46.55
82672;BME280;72378;52.468;13.432;2024-01-30T04:44:05;102407.50;;;8.61;47.60
82672;BME280;72378;52.468;13.432;2024-01-30T04:46:31;102411.88;;;8.73;46.85
82672;BME280;72378;52.468;13.432;2024-01-30T04:48:59;102408.00;;;8.87;46.35
82672;BME280;72378;52.468;13.432;2024-01-30T04:51:26;102412.66;;;8.64;46.85
82672;BME280;72378;52.468;13.432;2024-01-30T04:53:52;102405.66;;;8.61;46.97
82672;BME280;72378;52.468;13.432;2024-01-30T04:56:19;102413.91;;;8.49;47.24
82672;BME280;72378;52.468;13.432;2024-01-30T04:58:46;102414.25;;;8.87;46.85
82672;BME280;72378;52.468;13.432;2024-01-30T05:01:14;102401.31;;;8.81;46.90
82672;BME280;72378;52.468;13.432;2024-01-30T05:03:41;102414.97;;;9.21;46.11
82672;BME280;72378;52.468;13.432;2024-01-30T05:06:07;102416.94;;;9.60;44.86
82672;BME280;72378;52.468;13.432;2024-01-30T05:08:34;102412.97;;;9.64;44.34
82672;BME280;72378;52.468;13.432;2024-01-30T05:11:01;102413.75;;;9.14;45.91
82672;BME280;72378;52.468;13.432;2024-01-30T05:13:30;102411.63;;;8.76;46.51
82672;BME280;72378;52.468;13.432;2024-01-30T05:15:56;102409.81;;;8.97;45.99
82672;BME280;72378;52.468;13.432;2024-01-30T05:18:22;102413.41;;;8.55;47.10
82672;BME280;72378;52.468;13.432;2024-01-30T05:20:49;102418.25;;;9.24;45.84
82672;BME280;72378;52.468;13.432;2024-01-30T05:23:15;102415.19;;;8.97;46.29
82672;BME280;72378;52.468;13.432;2024-01-30T05:25:42;102408.25;;;9.36;45.47
82672;BME280;72378;52.468;13.432;2024-01-30T05:28:08;102410.28;;;9.02;46.14
82672;BME280;72378;52.468;13.432;2024-01-30T05:30:36;102405.22;;;9.29;45.52
82672;BME280;72378;52.468;13.432;2024-01-30T05:33:03;102420.66;;;8.54;47.01
82672;BME280;72378;52.468;13.432;2024-01-30T05:35:29;102411.53;;;8.98;46.54
82672;BME280;72378;52.468;13.432;2024-01-30T05:37:55;102416.03;;;8.23;48.34
82672;BME280;72378;52.468;13.432;2024-01-30T05:40:22;102412.66;;;8.53;47.69
82672;BME280;72378;52.468;13.432;2024-01-30T05:42:48;102402.66;;;8.33;48.25
82672;BME280;72378;52.468;13.432;2024-01-30T05:45:14;102406.97;;;8.78;46.67
82672;BME280;72378;52.468;13.432;2024-01-30T05:47:42;102401.97;;;8.31;48.33
82672;BME280;72378;52.468;13.432;2024-01-30T05:50:09;102395.06;;;8.16;48.81
82672;BME280;72378;52.468;13.432;2024-01-30T05:52:35;102396.19;;;8.78;47.40
82672;BME280;72378;52.468;13.432;2024-01-30T05:55:02;102395.47;;;7.89;50.01
82672;BME280;72378;52.468;13.432;2024-01-30T05:57:28;102384.81;;;7.66;50.91
82672;BME280;72378;52.468;13.432;2024-01-30T05:59:55;102396.72;;;8.61;48.34
82672;BME280;72378;52.468;13.432;2024-01-30T06:02:21;102395.22;;;8.68;47.65
82672;BME280;72378;52.468;13.432;2024-01-30T06:04:49;102399.84;;;8.34;48.17
82672;BME280;72378;52.468;13.432;2024-01-30T06:07:16;102400.75;;;8.24;48.19
82672;BME280;72378;52.468;13.432;2024-01-30T06:09:42;102400.84;;;8.22;48.92
82672;BME280;72378;52.468;13.432;2024-01-30T06:12:09;102403.13;;;8.49;48.37
82672;BME280;72378;52.468;13.432;2024-01-30T06:14:36;102401.53;;;8.46;48.04
82672;BME280;72378;52.468;13.432;2024-01-30T06:17:03;102403.19;;;8.27;48.06
82672;BME280;72378;52.468;13.432;2024-01-30T06:19:30;102403.88;;;8.51;48.20
82672;BME280;72378;52.468;13.432;2024-01-30T06:21:57;102396.59;;;8.62;47.64
82672;BME280;72378;52.468;13.432;2024-01-30T06:24:24;102404.47;;;8.43;48.04
82672;BME280;72378;52.468;13.432;2024-01-30T06:26:50;102396.19;;;8.13;48.62
82672;BME280;72378;52.468;13.432;2024-01-30T06:29:16;102406.22;;;8.33;48.64
82672;BME280;72378;52.468;13.432;2024-01-30T06:31:43;102399.97;;;8.22;48.53
82672;BME280;72378;52.468;13.432;2024-01-30T06:34:09;102397.78;;;8.27;48.76
82672;BME280;72378;52.468;13.432;2024-01-30T06:36:37;102392.50;;;8.14;49.37
82672;BME280;72378;52.468;13.432;2024-01-30T06:39:04;102388.31;;;8.21;48.54
82672;BME280;72378;52.468;13.432;2024-01-30T06:41:31;102396.97;;;8.90;47.16
82672;BME280;72378;52.468;13.432;2024-01-30T06:43:57;102383.56;;;8.25;48.37
82672;BME280;72378;52.468;13.432;2024-01-30T06:46:23;102388.22;;;8.12;49.22
82672;BME280;72378;52.468;13.432;2024-01-30T06:48:50;102387.00;;;8.05;49.23
82672;BME280;72378;52.468;13.432;2024-01-30T06:51:16;102388.00;;;7.82;49.84
82672;BME280;72378;52.468;13.432;2024-01-30T06:53:43;102383.09;;;8.09;48.73
82672;BME280;72378;52.468;13.432;2024-01-30T06:56:10;102395.84;;;8.92;46.96
82672;BME280;72378;52.468;13.432;2024-01-30T06:58:37;102402.66;;;8.22;48.61
82672;BME280;72378;52.468;13.432;2024-01-30T07:01:04;102395.53;;;8.43;48.29
82672;BME280;72378;52.468;13.432;2024-01-30T07:03:30;102395.50;;;8.54;47.74
82672;BME280;72378;52.468;13.432;2024-01-30T07:05:56;102399.50;;;7.62;49.96
82672;BME280;72378;52.468;13.432;2024-01-30T07:08:22;102394.13;;;7.84;49.83
82672;BME280;72378;52.468;13.432;2024-01-30T07:10:49;102395.78;;;8.18;49.48
82672;BME280;72378;52.468;13.432;2024-01-30T07:13:16;102397.47;;;8.84;47.29
82672;BME280;72378;52.468;13.432;2024-01-30T07:15:43;102402.41;;;8.79;47.31
82672;BME280;72378;52.468;13.432;2024-01-30T07:18:09;102404.75;;;8.72;47.95
82672;BME280;72378;52.468;13.432;2024-01-30T07:20:36;102397.06;;;8.14;48.96
82672;BME280;72378;52.468;13.432;2024-01-30T07:23:03;102403.59;;;8.54;48.47
82672;BME280;72378;52.468;13.432;2024-01-30T07:25:29;102402.59;;;8.87;47.71
82672;BME280;72378;52.468;13.432;2024-01-30T07:27:56;102393.63;;;9.18;46.74
82672;BME280;72378;52.468;13.432;2024-01-30T07:30:24;102392.56;;;9.09;47.06
82672;BME280;72378;52.468;13.432;2024-01-30T07:32:50;102383.28;;;9.43;46.20
82672;BME280;72378;52.468;13.432;2024-01-30T07:35:16;102385.13;;;9.22;46.38
82672;BME280;72378;52.468;13.432;2024-01-30T07:37:43;102372.88;;;8.77;47.04
82672;BME280;72378;52.468;13.432;2024-01-30T07:40:10;102374.41;;;9.11;47.04
82672;BME280;72378;52.468;13.432;2024-01-30T07:42:37;102384.47;;;9.09;46.96
82672;BME280;72378;52.468;13.432;2024-01-30T07:45:04;102383.78;;;8.44;48.14
82672;BME280;72378;52.468;13.432;2024-01-30T07:47:32;102379.00;;;8.79;47.94
82672;BME280;72378;52.468;13.432;2024-01-30T07:49:59;102386.81;;;8.82;47.60
82672;BME280;72378;52.468;13.432;2024-01-30T07:52:25;102384.56;;;8.98;47.52
82672;BME280;72378;52.468;13.432;2024-01-30T07:54:51;102377.03;;;8.81;47.21
82672;BME280;72378;52.468;13.432;2024-01-30T07:57:18;102380.69;;;9.12;46.83
82672;BME280;72378;52.468;13.432;2024-01-30T07:59:44;102377.81;;;9.34;46.76
82672;BME280;72378;52.468;13.432;2024-01-30T08:02:11;102380.78;;;10.12;44.76
82672;BME280;72378;52.468;13.432;2024-01-30T08:04:40;102379.28;;;9.17;46.86
82672;BME280;72378;52.468;13.432;2024-01-30T08:07:06;102377.56;;;9.16;46.91
82672;BME280;72378;52.468;13.432;2024-01-30T08:09:33;102377.13;;;8.59;48.08
82672;BME280;72378;52.468;13.432;2024-01-30T08:12:00;102380.91;;;7.92;50.76
82672;BME280;72378;52.468;13.432;2024-01-30T08:14:26;102386.84;;;8.39;49.31
82672;BME280;72378;52.468;13.432;2024-01-30T08:16:53;102377.59;;;8.53;48.74
82672;BME280;72378;52.468;13.432;2024-01-30T08:19:20;102378.03;;;9.01;47.45
82672;BME280;72378;52.468;13.432;2024-01-30T08:21:47;102370.66;;;9.23;46.86
82672;BME280;72378;52.468;13.432;2024-01-30T08:24:14;102373.81;;;10.09;44.83
82672;BME280;72378;52.468;13.432;2024-01-30T08:26:40;102367.13;;;9.83;45.00
82672;BME280;72378;52.468;13.432;2024-01-30T08:29:07;102366.41;;;9.51;46.15
82672;BME280;72378;52.468;13.432;2024-01-30T08:31:33;102360.69;;;9.44;46.54
82672;BME280;72378;52.468;13.432;2024-01-30T08:33:59;102371.31;;;8.32;48.43
82672;BME280;72378;52.468;13.432;2024-01-30T08:36:26;102364.13;;;9.05;47.52
82672;BME280;72378;52.468;13.432;2024-01-30T08:38:54;102359.97;;;10.80;42.88
82672;BME280;72378;52.468;13.432;2024-01-30T08:41:20;102353.66;;;11.08;42.05
82672;BME280;72378;52.468;13.432;2024-01-30T08:43:47;102339.59;;;11.51;41.13
82672;BME280;72378;52.468;13.432;2024-01-30T08:46:16;102356.47;;;12.09;39.42
82672;BME280;72378;52.468;13.432;2024-01-30T08:48:43;102360.50;;;11.03;40.83
82672;BME280;72378;52.468;13.432;2024-01-30T08:51:09;102346.41;;;11.55;40.07
82672;BME280;72378;52.468;13.432;2024-01-30T08:53:36;102358.25;;;10.70;41.85
82672;BME280;72378;52.468;13.432;2024-01-30T08:56:06;102349.53;;;11.04;41.10
82672;BME280;72378;52.468;13.432;2024-01-30T08:58:33;102356.47;;;11.36;40.73
82672;BME280;72378;52.468;13.432;2024-01-30T09:00:59;102360.97;;;11.54;41.00
82672;BME280;72378;52.468;13.432;2024-01-30T09:03:25;102359.28;;;12.62;38.24
82672;BME280;72378;52.468;13.432;2024-01-30T09:05:52;102360.44;;;12.42;37.43
82672;BME280;72378;52.468;13.432;2024-01-30T09:08:19;102361.28;;;12.60;38.45
82672;BME280;72378;52.468;13.432;2024-01-30T09:10:45;102351.44;;;13.37;37.09
82672;BME280;72378;52.468;13.432;2024-01-30T09:13:13;102351.25;;;13.56;36.29
82672;BME280;72378;52.468;13.432;2024-01-30T09:15:40;102355.53;;;12.63;37.11
82672;BME280;72378;52.468;13.432;2024-01-30T09:18:06;102352.84;;;12.98;38.05
82672;BME280;72378;52.468;13.432;2024-01-30T09:20:33;102350.72;;;12.92;37.20
82672;BME280;72378;52.468;13.432;2024-01-30T09:22:59;102357.41;;;13.66;36.29
82672;BME280;72378;52.468;13.432;2024-01-30T09:25:26;102356.34;;;12.55;38.45
82672;BME280;72378;52.468;13.432;2024-01-30T09:27:52;102352.34;;;12.85;38.17
82672;BME280;72378;52.468;13.432;2024-01-30T09:30:20;102359.00;;;12.20;39.10
82672;BME280;72378;52.468;13.432;2024-01-30T09:32:46;102361.13;;;12.44;38.80
82672;BME280;72378;52.468;13.432;2024-01-30T09:35:12;102356.31;;;11.83;39.18
82672;BME280;72378;52.468;13.432;2024-01-30T09:37:39;102356.47;;;12.89;38.11
82672;BME280;72378;52.468;13.432;2024-01-30T09:40:06;102353.22;;;13.46;36.68
82672;BME280;72378;52.468;13.432;2024-01-30T09:42:34;102351.03;;;12.71;38.65
82672;BME280;72378;52.468;13.432;2024-01-30T09:45:01;102353.34;;;12.31;39.12
82672;BME280;72378;52.468;13.432;2024-01-30T09:47:32;102349.19;;;13.50;37.01
82672;BME280;72378;52.468;13.432;2024-01-30T09:49:58;102350.75;;;12.57;38.15
82672;BME280;72378;52.468;13.432;2024-01-30T09:52:25;102347.28;;;13.25;37.45
82672;BME280;72378;52.468;13.432;2024-01-30T09:54:51;102345.69;;;12.97;38.18
82672;BME280;72378;52.468;13.432;2024-01-30T09:57:18;102351.38;;;12.86;37.65
82672;BME280;72378;52.468;13.432;2024-01-30T09:59:46;102341.97;;;13.67;36.35
82672;BME280;72378;52.468;13.432;2024-01-30T10:02:12;102333.72;;;13.84;35.83
82672;BME280;72378;52.468;13.432;2024-01-30T10:04:40;102345.69;;;12.44;38.39
82672;BME280;72378;52.468;13.432;2024-01-30T10:07:07;102340.09;;;12.98;37.14
82672;BME280;72378;52.468;13.432;2024-01-30T10:09:36;102338.44;;;13.48;36.05
82672;BME280;72378;52.468;13.432;2024-01-30T10:12:04;102340.22;;;13.99;35.18
82672;BME280;72378;52.468;13.432;2024-01-30T10:14:30;102334.03;;;13.22;36.22
82672;BME280;72378;52.468;13.432;2024-01-30T10:16:57;102339.13;;;14.18;35.08
82672;BME280;72378;52.468;13.432;2024-01-30T10:19:24;102341.06;;;13.32;35.06
82672;BME280;72378;52.468;13.432;2024-01-30T10:21:52;102337.81;;;13.29;36.46
82672;BME280;72378;52.468;13.432;2024-01-30T10:24:18;102323.78;;;14.74;33.19
82672;BME280;72378;52.468;13.432;2024-01-30T10:26:44;102330.94;;;14.10;34.77
82672;BME280;72378;52.468;13.432;2024-01-30T10:29:10;102323.69;;;14.26;34.88
82672;BME280;72378;52.468;13.432;2024-01-30T10:31:37;102324.31;;;14.12;35.24
82672;BME280;72378;52.468;13.432;2024-01-30T10:34:04;102325.56;;;13.50;36.05
82672;BME280;72378;52.468;13.432;2024-01-30T10:36:30;102316.41;;;14.35;34.29
82672;BME280;72378;52.468;13.432;2024-01-30T10:39:01;102319.88;;;14.11;34.51
82672;BME280;72378;52.468;13.432;2024-01-30T10:41:31;102316.63;;;14.57;33.33
82672;BME280;72378;52.468;13.432;2024-01-30T10:44:05;102316.75;;;14.32;33.96
82672;BME280;72378;52.468;13.432;2024-01-30T10:46:35;102316.50;;;13.42;35.27
82672;BME280;72378;52.468;13.432;2024-01-30T10:49:03;102316.81;;;14.14;34.10
82672;BME280;72378;52.468;13.432;2024-01-30T10:51:31;102319.50;;;13.98;34.75
82672;BME280;72378;52.468;13.432;2024-01-30T10:53:58;102320.19;;;14.00;34.45
82672;BME280;72378;52.468;13.432;2024-01-30T10:56:26;102318.00;;;13.11;36.19
82672;BME280;72378;52.468;13.432;2024-01-30T10:58:53;102310.13;;;14.42;33.55
82672;BME280;72378;52.468;13.432;2024-01-30T11:01:21;102320.66;;;13.96;34.52
82672;BME280;72378;52.468;13.432;2024-01-30T11:03:48;102316.56;;;13.24;34.79
82672;BME280;72378;52.468;13.432;2024-01-30T11:06:15;102326.09;;;13.03;35.80
82672;BME280;72378;52.468;13.432;2024-01-30T11:08:45;102316.75;;;12.17;36.85
82672;BME280;72378;52.468;13.432;2024-01-30T11:11:11;102324.44;;;12.22;38.80
82672;BME280;72378;52.468;13.432;2024-01-30T11:13:39;102326.59;;;12.18;37.63
82672;BME280;72378;52.468;13.432;2024-01-30T11:16:06;102320.97;;;12.02;39.02
82672;BME280;72378;52.468;13.432;2024-01-30T11:18:35;102312.81;;;12.29;38.15
82672;BME280;72378;52.468;13.432;2024-01-30T11:21:04;102317.56;;;12.00;38.63
82672;BME280;72378;52.468;13.432;2024-01-30T11:23:33;102322.13;;;12.27;38.58
82672;BME280;72378;52.468;13.432;2024-01-30T11:26:00;102322.53;;;12.67;36.42
82672;BME280;72378;52.468;13.432;2024-01-30T11:28:32;102316.00;;;12.60;37.76
82672;BME280;72378;52.468;13.432;2024-01-30T11:31:04;102305.97;;;11.81;39.48
82672;BME280;72378;52.468;13.432;2024-01-30T11:33:32;102315.16;;;11.97;38.64
82672;BME280;72378;52.468;13.432;2024-01-30T11:36:00;102308.91;;;12.85;36.54
82672;BME280;72378;52.468;13.432;2024-01-30T11:38:27;102308.19;;;12.57;38.28
82672;BME280;72378;52.468;13.432;2024-01-30T11:40:54;102298.09;;;12.67;36.29
82672;BME280;72378;52.468;13.432;2024-01-30T11:43:21;102295.66;;;12.99;36.60
82672;BME280;72378;52.468;13.432;2024-01-30T11:45:47;102313.25;;;12.07;38.83
82672;BME280;72378;52.468;13.432;2024-01-30T11:48:15;102302.19;;;12.89;37.34
82672;BME280;72378;52.468;13.432;2024-01-30T11:50:42;102303.53;;;11.51;39.67
82672;BME280;72378;52.468;13.432;2024-01-30T11:53:09;102290.63;;;13.04;37.28
82672;BME280;72378;52.468;13.432;2024-01-30T11:55:36;102299.84;;;14.20;35.52
82672;BME280;72378;52.468;13.432;2024-01-30T11:58:03;102299.09;;;12.66;37.81
82672;BME280;72378;52.468;13.432;2024-01-30T12:00:30;102293.44;;;12.77;37.53
82672;BME280;72378;52.468;13.432;2024-01-30T12:02:58;102291.94;;;12.83;38.02
82672;BME280;72378;52.468;13.432;2024-01-30T12:05:28;102291.44;;;12.26;39.00
82672;BME280;72378;52.468;13.432;2024-01-30T12:07:54;102279.13;;;12.93;38.14
82672;BME280;72378;52.468;13.432;2024-01-30T12:10:24;102275.75;;;14.41;35.50
82672;BME280;72378;52.468;13.432;2024-01-30T12:12:51;102277.78;;;15.04;33.78
82672;BME280;72378;52.468;13.432;2024-01-30T12:15:18;102270.03;;;15.63;32.12
82672;BME280;72378;52.468;13.432;2024-01-30T12:17:46;102276.00;;;15.59;32.60
82672;BME280;72378;52.468;13.432;2024-01-30T12:20:14;102279.47;;;15.83;32.17
82672;BME280;72378;52.468;13.432;2024-01-30T12:22:43;102265.06;;;14.96;33.33
82672;BME280;72378;52.468;13.432;2024-01-30T12:25:11;102264.84;;;15.22;33.79
82672;BME280;72378;52.468;13.432;2024-01-30T12:27:38;102262.88;;;15.93;32.64
82672;BME280;72378;52.468;13.432;2024-01-30T12:30:05;102263.84;;;15.07;33.89
82672;BME280;72378;52.468;13.432;2024-01-30T12:32:34;102250.38;;;15.13;33.26
82672;BME280;72378;52.468;13.432;2024-01-30T12:35:01;102247.50;;;15.07;34.13
82672;BME280;72378;52.468;13.432;2024-01-30T12:37:27;102235.78;;;14.42;35.02
82672;BME280;72378;52.468;13.432;2024-01-30T12:39:56;102247.00;;;14.79;34.47
82672;BME280;72378;52.468;13.432;2024-01-30T12:42:23;102245.13;;;14.71;35.14